Time;durP1;ratioP1;P1;durP2;ratioP2;P2;SDS_P1;SDS_P2;PMS_P1;PMS_P2;Temp;Humidity;BMP_temperature;BMP_pressure;BME280_temperature;BME280_humidity;BME280_pressure;Samples;Min_cycle;Max_cycle;Signal;HPM_P1;HPM_P2
2023/11/09 00:00:31;;;;;;;4.40;4.00;;;8.50;99.90;;;;;;10507626;28;20223;-79
2023/11/09 00:05:33;;;;;;;3.63;3.33;;;8.40;99.90;;;;;;10507636;28;20361;-79
2023/11/09 00:10:37;;;;;;;3.90;3.60;;;8.40;99.90;;;;;;10507250;28;20228;-80
2023/11/09 00:15:39;;;;;;;3.93;3.50;;;8.40;99.90;;;;;;10536849;22;20188;-76
2023/11/09 00:20:42;;;;;;;3.90;3.60;;;8.50;99.90;;;;;;10443246;28;21397;-77
2023/11/09 00:25:46;;;;;;;3.67;3.43;;;8.50;99.90;;;;;;10451456;28;20220;-76
2023/11/09 00:30:48;;;;;;;3.83;2.80;;;8.50;99.90;;;;;;10433043;28;20225;-76
2023/11/09 00:35:52;;;;;;;3.07;2.63;;;8.60;99.90;;;;;;10424431;28;20229;-76
2023/11/09 00:40:57;;;;;;;5.40;3.30;;;8.60;99.90;;;;;;10412744;28;20190;-77
2023/11/09 00:46:00;;;;;;;3.10;2.80;;;8.70;99.90;;;;;;10440642;28;20213;-77
2023/11/09 00:51:02;;;;;;;3.30;3.10;;;8.80;99.90;;;;;;10435802;28;20274;-76
2023/11/09 00:56:06;;;;;;;3.00;2.80;;;8.90;99.90;;;;;;10443586;28;20710;-76
2023/11/09 01:01:09;;;;;;;3.40;3.20;;;8.90;99.90;;;;;;10443229;28;20205;-77
2023/11/09 01:06:11;;;;;;;3.60;3.30;;;8.90;99.60;;;;;;10424114;28;20225;-77
2023/11/09 01:11:22;;;;;;;3.27;3.07;;;8.90;99.60;;;;;;10442547;28;20729;-77
2023/11/09 01:16:25;;;;;;;3.23;3.03;;;8.90;99.60;;;;;;10417546;28;20553;-76
2023/11/09 01:21:27;;;;;;;3.37;3.10;;;8.90;99.50;;;;;;10409661;28;20550;-77
2023/11/09 01:26:31;;;;;;;3.60;3.30;;;8.90;99.30;;;;;;10449194;28;20217;-77
2023/11/09 01:31:34;;;;;;;3.73;3.43;;;8.90;99.40;;;;;;10422742;28;20271;-77
2023/11/09 01:36:37;;;;;;;3.40;3.20;;;8.90;99.40;;;;;;10439878;28;20287;-77
2023/11/09 01:41:42;;;;;;;3.60;3.10;;;8.90;99.40;;;;;;10440066;28;20270;-77
2023/11/09 01:46:46;;;;;;;3.30;3.10;;;8.90;99.40;;;;;;10431994;28;20229;-77
2023/11/09 01:51:54;;;;;;;3.40;3.10;;;8.80;99.30;;;;;;10446650;28;20223;-76
2023/11/09 01:56:58;;;;;;;3.60;3.30;;;8.80;99.50;;;;;;10429103;28;20287;-77
2023/11/09 02:02:02;;;;;;;3.10;2.90;;;8.70;99.50;;;;;;10441749;28;20201;-76
2023/11/09 02:07:05;;;;;;;3.33;3.03;;;8.70;99.40;;;;;;10426492;28;20221;-76
2023/11/09 02:12:10;;;;;;;3.10;2.80;;;8.60;99.40;;;;;;10428197;28;20592;-76
2023/11/09 02:17:12;;;;;;;3.13;2.90;;;8.60;99.30;;;;;;10416371;28;20228;-76
2023/11/09 02:22:16;;;;;;;3.70;3.17;;;8.60;99.00;;;;;;10444929;28;20622;-77
2023/11/09 02:27:19;;;;;;;3.30;3.07;;;8.60;99.30;;;;;;10427775;28;20239;-77
2023/11/09 02:32:22;;;;;;;2.87;2.67;;;8.60;99.50;;;;;;10448242;28;20229;-76
2023/11/09 02:37:25;;;;;;;3.60;3.10;;;8.60;99.30;;;;;;10433784;28;20287;-76
2023/11/09 02:42:29;;;;;;;3.00;2.80;;;8.60;99.20;;;;;;10433343;28;20251;-76
2023/11/09 02:47:31;;;;;;;3.13;2.93;;;8.60;99.20;;;;;;10434890;28;20251;-77
2023/11/09 02:52:33;;;;;;;2.97;2.73;;;8.60;99.20;;;;;;10432397;28;20217;-76
2023/11/09 02:57:37;;;;;;;2.70;2.50;;;8.60;99.20;;;;;;10439148;28;20248;-77
2023/11/09 03:02:41;;;;;;;4.33;3.03;;;8.60;99.00;;;;;;10438661;28;20198;-76
2023/11/09 03:07:43;;;;;;;3.37;2.73;;;8.60;99.20;;;;;;10429530;28;20233;-77
2023/11/09 03:12:48;;;;;;;3.30;3.10;;;8.60;99.00;;;;;;10407855;28;20710;-76
2023/11/09 03:17:50;;;;;;;2.90;2.67;;;8.60;98.80;;;;;;10418612;28;20233;-76
2023/11/09 03:22:53;;;;;;;2.37;2.27;;;8.70;98.80;;;;;;10417301;28;20194;-76
2023/11/09 03:27:57;;;;;;;2.80;2.60;;;8.70;99.00;;;;;;10416706;28;20280;-77
2023/11/09 03:32:59;;;;;;;3.13;2.83;;;8.70;99.20;;;;;;10416438;28;20221;-77
2023/11/09 03:38:03;;;;;;;3.17;2.87;;;8.80;99.30;;;;;;10415061;28;20226;-76
2023/11/09 03:43:07;;;;;;;2.90;2.70;;;8.80;99.00;;;;;;10428290;28;20263;-77
2023/11/09 03:48:10;;;;;;;2.60;2.50;;;8.80;98.60;;;;;;10415667;28;20221;-77
2023/11/09 03:53:12;;;;;;;2.73;2.53;;;8.80;98.60;;;;;;10453089;28;20217;-75
2023/11/09 03:58:16;;;;;;;5.57;2.73;;;8.80;98.80;;;;;;10439993;28;20225;-76
2023/11/09 04:03:18;;;;;;;3.00;2.80;;;8.70;98.60;;;;;;10419449;28;20236;-77
2023/11/09 04:08:21;;;;;;;2.97;2.77;;;8.70;98.70;;;;;;10418279;28;20217;-76
2023/11/09 04:13:24;;;;;;;4.10;2.77;;;8.70;98.50;;;;;;10406613;28;20707;-76
2023/11/09 04:18:27;;;;;;;2.80;2.60;;;8.70;98.10;;;;;;10431743;28;20225;-77
2023/11/09 04:23:29;;;;;;;3.13;2.30;;;8.70;98.40;;;;;;10436783;28;20248;-76
2023/11/09 04:28:33;;;;;;;2.43;2.33;;;8.60;98.40;;;;;;10416303;28;20222;-75
2023/11/09 04:33:36;;;;;;;2.93;2.70;;;8.60;98.40;;;;;;10415839;28;20283;-76
2023/11/09 04:38:40;;;;;;;4.37;4.00;;;8.50;98.80;;;;;;10428620;28;20284;-76
2023/11/09 04:43:44;;;;;;;3.27;3.10;;;8.50;99.10;;;;;;10432950;28;20206;-76
2023/11/09 04:48:48;;;;;;;5.00;3.07;;;8.50;99.20;;;;;;10396505;28;20226;-76
2023/11/09 04:53:52;;;;;;;3.57;3.20;;;8.50;99.10;;;;;;10412666;28;20234;-76
2023/11/09 04:59:02;;;;;;;3.30;3.00;;;8.60;99.30;;;;;;10420702;28;20252;-75
2023/11/09 05:09:21;;;;;;;3.20;2.90;;;8.80;97.80;;;;;;10418739;28;20224;-75
2023/11/09 05:14:25;;;;;;;3.50;3.20;;;8.90;98.40;;;;;;10433955;28;20236;-75
2023/11/09 05:19:27;;;;;;;3.73;3.43;;;9.00;98.10;;;;;;10434693;28;20288;-76
2023/11/09 05:24:29;;;;;;;3.57;3.27;;;9.10;97.60;;;;;;10418850;28;20194;-76
2023/11/09 05:29:33;;;;;;;3.27;2.60;;;9.10;97.50;;;;;;10434345;28;20213;-76
2023/11/09 05:34:36;;;;;;;3.13;2.93;;;9.20;97.40;;;;;;10433135;28;20287;-77
2023/11/09 05:39:38;;;;;;;3.53;3.23;;;9.30;97.00;;;;;;10417993;28;20217;-76
2023/11/09 05:44:42;;;;;;;3.70;3.40;;;9.30;97.70;;;;;;10433541;28;20735;-76
2023/11/09 05:49:44;;;;;;;4.23;3.50;;;9.30;98.10;;;;;;10439275;28;20251;-77
2023/11/09 05:54:47;;;;;;;4.23;3.53;;;9.30;98.40;;;;;;10441800;28;20670;-76
2023/11/09 05:59:51;;;;;;;4.43;4.13;;;9.30;98.10;;;;;;10432360;28;20607;-76
2023/11/09 06:04:53;;;;;;;3.90;3.60;;;9.30;98.20;;;;;;10439470;28;20232;-76
2023/11/09 06:09:55;;;;;;;4.13;3.83;;;9.30;98.40;;;;;;10420874;28;20625;-76
2023/11/09 06:14:59;;;;;;;3.83;3.53;;;9.30;98.50;;;;;;10429370;28;20221;-76
2023/11/09 06:20:02;;;;;;;4.70;4.30;;;9.30;98.40;;;;;;10439532;22;20625;-79
2023/11/09 06:25:05;;;;;;;4.07;3.77;;;9.30;98.70;;;;;;10378749;28;20203;-79
2023/11/09 06:30:10;;;;;;;4.50;4.20;;;9.30;98.30;;;;;;10400905;28;20260;-79
2023/11/09 06:35:17;;;;;;;4.47;4.07;;;9.30;98.80;;;;;;10411294;28;20268;-79
2023/11/09 06:40:19;;;;;;;6.20;4.10;;;9.30;98.70;;;;;;10401927;28;20284;-79
2023/11/09 06:45:23;;;;;;;5.27;4.77;;;9.30;98.60;;;;;;10417166;28;20722;-78
2023/11/09 06:50:26;;;;;;;4.80;4.50;;;9.30;98.70;;;;;;10415545;28;20244;-79
2023/11/09 06:55:29;;;;;;;5.30;4.80;;;9.30;99.00;;;;;;10415610;28;20221;-79
2023/11/09 07:00:32;;;;;;;5.93;4.70;;;9.40;98.80;;;;;;10417758;28;20264;-79
2023/11/09 07:05:35;;;;;;;4.97;4.00;;;9.40;99.30;;;;;;10414970;28;20681;-79
2023/11/09 07:10:37;;;;;;;4.07;3.77;;;9.40;99.10;;;;;;10416240;28;20226;-79
2023/11/09 07:15:42;;;;;;;3.43;3.13;;;9.50;99.00;;;;;;10414019;28;20234;-79
2023/11/09 07:20:44;;;;;;;4.13;3.80;;;9.70;98.70;;;;;;10412472;28;20206;-80
2023/11/09 07:25:46;;;;;;;4.30;4.00;;;9.80;98.80;;;;;;10416969;28;20282;-78
2023/11/09 07:30:53;;;;;;;4.40;3.37;;;9.80;98.60;;;;;;10399874;28;20225;-79
2023/11/09 07:35:57;;;;;;;2.30;2.03;;;9.90;98.50;;;;;;10388349;28;20639;-79
2023/11/09 07:41:00;;;;;;;2.77;2.57;;;10.00;97.10;;;;;;10407877;28;20764;-79
2023/11/09 07:46:04;;;;;;;1.93;1.80;;;10.10;95.80;;;;;;10406536;28;20218;-79
2023/11/09 07:51:07;;;;;;;2.30;2.10;;;10.20;95.20;;;;;;10406404;28;20618;-79
2023/11/09 07:56:11;;;;;;;3.87;2.20;;;10.30;95.20;;;;;;10404250;28;20675;-79
2023/11/09 08:01:14;;;;;;;3.37;3.07;;;10.40;96.40;;;;;;10420445;28;20218;-79
2023/11/09 08:06:17;;;;;;;4.43;2.70;;;10.50;96.30;;;;;;10412493;28;20214;-79
2023/11/09 08:11:20;;;;;;;2.80;2.60;;;10.40;97.00;;;;;;10420227;28;20225;-79
2023/11/09 08:16:24;;;;;;;3.93;3.53;;;10.40;97.50;;;;;;10411148;28;20232;-78
2023/11/09 08:21:27;;;;;;;4.33;3.97;;;10.50;97.50;;;;;;10408920;28;20264;-79
2023/11/09 08:26:30;;;;;;;4.20;3.40;;;10.60;97.30;;;;;;10388856;28;20632;-80
2023/11/09 08:31:34;;;;;;;4.80;3.20;;;10.60;97.50;;;;;;10380870;28;20269;-79
2023/11/09 08:36:36;;;;;;;2.80;2.60;;;10.70;96.70;;;;;;10413412;28;20235;-79
2023/11/09 08:41:39;;;;;;;3.07;2.87;;;10.80;96.40;;;;;;10403410;28;20257;-79
2023/11/09 08:46:42;;;;;;;8.17;2.87;;;10.90;95.60;;;;;;10415213;28;20217;-79
2023/11/09 08:51:45;;;;;;;2.43;2.23;;;11.00;95.90;;;;;;10403890;28;20205;-79
2023/11/09 08:56:47;;;;;;;4.80;2.90;;;11.00;95.40;;;;;;10408086;28;20226;-79
2023/11/09 09:01:52;;;;;;;2.73;2.60;;;11.00;95.90;;;;;;10408545;28;20202;-79
2023/11/09 09:07:13;;;;;;;3.50;3.20;;;11.10;96.30;;;;;;10416045;28;20264;-80
2023/11/09 09:12:33;;;;;;;4.00;3.03;;;11.10;95.70;;;;;;10421088;28;20222;-78
2023/11/09 09:17:57;;;;;;;3.37;2.27;;;11.30;95.00;;;;;;10405776;28;20283;-79
2023/11/09 09:23:18;;;;;;;2.50;2.27;;;11.30;95.10;;;;;;10407613;28;20187;-79
2023/11/09 09:28:40;;;;;;;3.17;2.97;;;11.30;95.30;;;;;;10411618;28;20218;-79
2023/11/09 09:34:07;;;;;;;2.97;2.70;;;11.30;95.60;;;;;;10401098;28;20219;-79
2023/11/09 09:39:28;;;;;;;3.50;3.20;;;11.30;95.90;;;;;;10388786;28;20222;-79
2023/11/09 09:44:52;;;;;;;2.27;2.17;;;11.30;95.70;;;;;;10421167;28;20202;-79
2023/11/09 09:50:15;;;;;;;5.03;4.23;;;11.40;95.60;;;;;;10398685;28;20312;-79
2023/11/09 09:55:36;;;;;;;2.17;1.97;;;11.50;95.10;;;;;;10407082;28;20680;-78
2023/11/09 10:01:02;;;;;;;2.83;2.63;;;11.50;95.50;;;;;;10405324;28;20710;-78
2023/11/09 10:06:25;;;;;;;5.87;2.60;;;11.60;95.20;;;;;;10407934;28;20229;-80
2023/11/09 10:11:49;;;;;;;2.97;2.73;;;11.70;95.30;;;;;;10417529;28;20202;-80
2023/11/09 10:17:11;;;;;;;3.60;2.40;;;11.70;95.70;;;;;;10404563;28;20285;-79
2023/11/09 10:22:38;;;;;;;1.83;1.73;;;11.80;96.00;;;;;;10412836;28;20206;-80
2023/11/09 10:28:01;;;;;;;1.90;1.80;;;11.90;96.10;;;;;;10403411;28;20304;-77
2023/11/09 10:33:23;;;;;;;2.03;1.83;;;11.90;95.80;;;;;;10397768;28;20238;-78
2023/11/09 10:38:48;;;;;;;2.40;1.40;;;12.00;96.50;;;;;;10406313;28;20225;-78
2023/11/09 10:43:51;;;;;;;2.10;2.00;;;12.00;96.30;;;;;;10405622;28;20199;-78
2023/11/09 10:48:58;;;;;;;2.00;1.77;;;12.10;96.80;;;;;;10395972;28;20233;-79
2023/11/09 10:54:03;;;;;;;2.00;1.90;;;12.20;97.00;;;;;;10409435;28;20250;-79
2023/11/09 10:59:05;;;;;;;1.93;1.83;;;12.20;96.90;;;;;;10414176;28;20233;-79
2023/11/09 11:04:12;;;;;;;2.20;1.80;;;12.30;97.00;;;;;;10401984;28;20197;-79
2023/11/09 11:09:25;;;;;;;2.07;1.97;;;12.30;97.30;;;;;;10416393;28;20226;-79
2023/11/09 11:14:29;;;;;;;1.83;1.73;;;12.50;97.30;;;;;;10422381;28;20222;-79
2023/11/09 11:19:59;;;;;;;2.23;2.00;;;12.60;97.10;;;;;;10408920;28;20730;-79
2023/11/09 11:25:34;;;;;;;1.60;1.50;;;12.60;97.10;;;;;;10397329;28;20194;-79
2023/11/09 11:31:03;;;;;;;1.70;1.60;;;12.70;97.10;;;;;;10403445;28;20289;-80
2023/11/09 11:36:26;;;;;;;2.87;2.67;;;12.70;97.10;;;;;;10403224;28;20230;-79
2023/11/09 11:41:50;;;;;;;1.60;1.50;;;12.70;97.40;;;;;;10409451;28;20194;-80
2023/11/09 11:47:10;;;;;;;3.03;1.57;;;12.80;97.20;;;;;;9442136;28;10000897;-79
2023/11/09 11:52:32;;;;;;;1.60;1.50;;;12.90;97.30;;;;;;8531722;28;10000986;-79
2023/11/09 11:58:05;;;;;;;1.43;1.40;;;12.90;97.20;;;;;;10255448;28;20444;-79
2023/11/09 12:03:26;;;;;;;1.93;1.83;;;12.90;97.20;;;;;;10265802;28;20205;-79
2023/11/09 12:08:48;;;;;;;1.80;1.70;;;12.90;97.40;;;;;;10260823;28;20303;-78
2023/11/09 12:14:11;;;;;;;1.60;1.50;;;12.90;97.70;;;;;;10267387;28;20659;-79
2023/11/09 12:19:14;;;;;;;1.67;1.37;;;12.90;97.40;;;;;;10257203;28;20239;-79
2023/11/09 12:24:21;;;;;;;1.33;1.23;;;12.90;97.90;;;;;;10256797;28;20188;-79
2023/11/09 12:29:28;;;;;;;1.83;1.73;;;;;;;;;;10257107;28;20216;-79
2023/11/09 12:34:35;;;;;;;1.43;1.27;;;13.20;97.50;;;;;;10258940;28;20232;-79
2023/11/09 12:39:37;;;;;;;1.27;1.27;;;13.30;97.60;;;;;;10272851;28;20228;-79
2023/11/09 12:44:43;;;;;;;2.67;2.47;;;13.40;96.70;;;;;;10257545;28;20263;-79
2023/11/09 12:49:47;;;;;;;1.80;1.00;;;13.50;96.90;;;;;;10249008;28;20686;-79
2023/11/09 12:54:50;;;;;;;1.30;1.20;;;13.50;96.60;;;;;;10256063;28;20244;-80
2023/11/09 12:59:55;;;;;;;1.20;1.17;;;13.50;96.50;;;;;;10260065;28;20244;-79
2023/11/09 13:04:59;;;;;;;1.10;1.10;;;13.60;96.50;;;;;;10263179;28;20220;-79
2023/11/09 13:10:18;;;;;;;3.50;1.07;;;13.60;96.60;;;;;;10256684;28;20223;-79
2023/11/09 13:15:36;;;;;;;1.10;1.10;;;13.50;97.10;;;;;;10262169;28;20216;-79
2023/11/09 13:20:38;;;;;;;1.30;1.30;;;13.40;96.70;;;;;;10257420;28;20213;-79
2023/11/09 13:25:43;;;;;;;1.10;1.03;;;13.40;96.70;;;;;;10253934;28;20201;-79
2023/11/09 13:30:51;;;;;;;3.10;1.00;;;13.40;97.00;;;;;;10260921;28;20578;-79
2023/11/09 13:35:54;;;;;;;1.30;1.20;;;13.30;96.60;;;;;;10255880;28;20220;-79
2023/11/09 13:41:09;;;;;;;1.53;1.20;;;13.30;96.90;;;;;;10255528;28;20224;-79
2023/11/09 13:46:14;;;;;;;1.10;0.90;;;13.30;96.80;;;;;;10256599;28;20224;-79
2023/11/09 13:51:21;;;;;;;1.10;1.10;;;13.30;96.90;;;;;;10256790;28;20207;-79
2023/11/09 13:57:03;;;;;;;0.80;0.80;;;13.30;96.90;;;;;;10256159;28;20229;-78
2023/11/09 14:01:53;;;;;;;1.00;1.00;;;13.20;97.30;;;;;;10272240;28;20666;-79
2023/11/09 14:06:57;;;;;;;1.10;1.10;;;13.20;97.40;;;;;;10260174;28;20216;-79
2023/11/09 14:12:00;;;;;;;3.77;1.20;;;13.10;97.10;;;;;;10255935;28;20193;-79
2023/11/09 14:17:06;;;;;;;1.50;0.90;;;13.10;97.20;;;;;;10261530;28;20953;-80
2023/11/09 14:22:12;;;;;;;0.93;0.93;;;13.10;97.60;;;;;;10251288;28;20209;-80
2023/11/09 14:27:17;;;;;;;1.03;1.03;;;13.00;97.30;;;;;;10252280;28;20228;-80
2023/11/09 14:32:24;;;;;;;1.40;1.30;;;13.00;97.40;;;;;;10256413;28;20208;-80
2023/11/09 14:37:26;;;;;;;0.80;0.80;;;13.00;97.80;;;;;;10257435;28;20655;-80
2023/11/09 14:42:30;;;;;;;1.13;1.13;;;13.00;97.80;;;;;;10256311;28;20292;-76
2023/11/09 14:47:41;;;;;;;1.10;1.00;;;12.90;97.40;;;;;;10257640;28;20256;-79
2023/11/09 14:53:02;;;;;;;1.27;1.17;;;12.90;97.90;;;;;;10255999;28;20330;-79
2023/11/09 14:58:08;;;;;;;1.33;1.00;;;12.90;98.10;;;;;;10268125;28;20240;-78
2023/11/09 15:03:18;;;;;;;0.97;0.97;;;12.80;98.60;;;;;;10258049;28;20216;-80
2023/11/09 15:08:26;;;;;;;1.07;1.03;;;12.80;99.00;;;;;;10263873;28;20229;-79
2023/11/09 15:13:28;;;;;;;1.20;1.20;;;12.70;99.30;;;;;;10255556;28;20205;-80
2023/11/09 15:18:34;;;;;;;1.20;1.10;;;12.60;99.70;;;;;;10259654;28;20220;-80
2023/11/09 15:23:37;;;;;;;1.57;1.30;;;12.50;99.90;;;;;;10260075;28;20209;-77
2023/11/09 15:28:40;;;;;;;1.53;1.47;;;12.50;99.90;;;;;;10258494;28;20658;-78
2023/11/09 15:33:44;;;;;;;1.37;1.27;;;12.40;99.90;;;;;;10259774;28;20236;-79
2023/11/09 15:38:50;;;;;;;1.20;1.20;;;12.30;99.90;;;;;;10252813;28;20637;-79
2023/11/09 15:43:53;;;;;;;1.10;1.10;;;12.30;99.90;;;;;;10248508;28;20200;-78
2023/11/09 15:48:57;;;;;;;1.20;1.20;;;12.40;99.90;;;;;;10255139;28;20287;-79
2023/11/09 15:53:59;;;;;;;1.50;1.40;;;12.30;99.90;;;;;;10263559;28;20216;-78
2023/11/09 15:59:01;;;;;;;1.20;1.20;;;12.40;99.90;;;;;;10259230;28;20642;-79
2023/11/09 16:04:06;;;;;;;1.30;1.20;;;12.40;99.90;;;;;;10258483;28;20201;-78
2023/11/09 16:09:12;;;;;;;1.07;1.07;;;12.30;99.90;;;;;;10256816;28;20291;-79
2023/11/09 16:14:14;;;;;;;1.60;1.50;;;12.30;99.90;;;;;;10255774;28;20227;-79
2023/11/09 16:19:18;;;;;;;1.50;1.40;;;12.20;99.90;;;;;;10264885;28;20646;-79
2023/11/09 16:24:24;;;;;;;1.67;1.60;;;12.20;99.90;;;;;;10255509;28;20252;-80
2023/11/09 16:29:27;;;;;;;2.60;1.70;;;12.10;99.90;;;;;;10254920;28;20224;-80
2023/11/09 16:34:31;;;;;;;2.27;2.17;;;12.10;99.90;;;;;;10257034;28;20288;-80
2023/11/09 16:39:35;;;;;;;1.53;1.43;;;12.10;99.90;;;;;;10256544;28;20224;-79
2023/11/09 16:44:37;;;;;;;2.13;1.93;;;12.00;99.90;;;;;;10269000;28;20231;-78
2023/11/09 16:49:41;;;;;;;2.13;2.03;;;12.00;99.90;;;;;;10247525;28;20262;-80
2023/11/09 16:54:43;;;;;;;2.17;1.97;;;12.00;99.90;;;;;;10254246;28;20232;-79
2023/11/09 16:59:49;;;;;;;2.20;2.10;;;12.00;99.90;;;;;;10261166;28;20220;-79
2023/11/09 17:04:53;;;;;;;6.93;6.30;;;12.00;99.90;;;;;;10255515;28;20201;-79
2023/11/09 17:09:56;;;;;;;2.00;1.90;;;12.00;99.90;;;;;;10253488;28;20220;-78
2023/11/09 17:14:59;;;;;;;2.20;2.10;;;12.00;99.90;;;;;;10257737;28;20626;-79
2023/11/09 17:20:04;;;;;;;2.47;2.37;;;12.00;99.90;;;;;;10262431;28;20232;-80
2023/11/09 17:25:07;;;;;;;2.33;2.23;;;12.00;99.90;;;;;;10255798;28;20206;-80
2023/11/09 17:30:11;;;;;;;1.70;1.60;;;12.00;99.90;;;;;;10255119;28;20637;-78
2023/11/09 17:35:15;;;;;;;2.03;1.90;;;11.90;99.90;;;;;;10251431;28;20229;-79
2023/11/09 17:40:18;;;;;;;2.40;2.30;;;12.00;99.90;;;;;;10264287;28;20295;-80
2023/11/09 17:45:20;;;;;;;2.00;1.90;;;11.90;99.90;;;;;;10255478;28;20239;-80
2023/11/09 17:50:24;;;;;;;2.40;2.30;;;11.90;99.90;;;;;;10264672;28;20232;-79
2023/11/09 17:55:26;;;;;;;2.67;2.47;;;11.80;99.90;;;;;;10262358;28;20706;-79
2023/11/09 18:00:29;;;;;;;2.27;2.17;;;11.80;99.90;;;;;;10254920;28;20291;-77
2023/11/09 18:05:32;;;;;;;2.30;2.10;;;11.80;99.90;;;;;;10267662;28;20225;-78
2023/11/09 18:10:35;;;;;;;6.27;2.17;;;11.80;99.90;;;;;;10262257;28;20702;-79
2023/11/09 18:15:41;;;;;;;2.00;1.90;;;11.80;99.90;;;;;;10269068;28;20248;-79
2023/11/09 18:20:45;;;;;;;2.13;2.03;;;11.70;99.90;;;;;;10340620;23;20225;-78
2023/11/09 18:25:47;;;;;;;2.40;2.20;;;11.80;99.90;;;;;;10331598;28;20188;-78
2023/11/09 18:30:52;;;;;;;2.00;1.90;;;11.70;99.90;;;;;;10338028;28;20636;-79
2023/11/09 18:35:56;;;;;;;2.10;2.00;;;11.70;99.90;;;;;;10319766;28;20708;-78
2023/11/09 18:40:59;;;;;;;2.37;2.23;;;11.70;99.90;;;;;;10339535;28;20219;-78
2023/11/09 18:46:01;;;;;;;1.30;1.23;;;11.70;99.90;;;;;;10337070;28;20668;-78
2023/11/09 18:51:06;;;;;;;2.00;1.90;;;11.60;99.90;;;;;;10335942;28;20238;-78
2023/11/09 18:56:09;;;;;;;2.03;1.93;;;11.50;99.90;;;;;;10336051;28;20211;-78
2023/11/09 19:01:11;;;;;;;1.67;1.57;;;11.50;99.90;;;;;;10337286;28;20257;-77
2023/11/09 19:06:16;;;;;;;2.00;1.90;;;11.40;99.90;;;;;;10338771;28;20207;-78
2023/11/09 19:11:19;;;;;;;18.40;13.43;;;11.40;99.90;;;;;;10331885;28;20195;-78
2023/11/09 19:16:21;;;;;;;7.23;6.53;;;11.40;99.90;;;;;;10330119;28;20220;-80
2023/11/09 19:21:25;;;;;;;2.07;1.97;;;11.30;99.90;;;;;;10325845;28;20200;-78
2023/11/09 19:26:30;;;;;;;1.73;1.63;;;11.20;99.90;;;;;;10327821;28;20223;-78
2023/11/09 19:31:33;;;;;;;1.97;1.87;;;11.20;99.90;;;;;;10321728;28;20940;-78
2023/11/09 19:36:37;;;;;;;2.00;1.90;;;11.20;99.90;;;;;;10312787;28;20226;-78
2023/11/09 19:41:39;;;;;;;1.73;1.63;;;11.20;99.90;;;;;;10327531;28;20227;-78
2023/11/09 19:46:42;;;;;;;2.07;1.90;;;11.20;99.90;;;;;;10317775;28;20219;-77
2023/11/09 19:51:46;;;;;;;2.10;2.00;;;11.10;99.90;;;;;;10327509;28;20685;-78
2023/11/09 19:56:48;;;;;;;1.97;1.87;;;11.10;99.90;;;;;;10338825;28;20226;-78
2023/11/09 20:01:51;;;;;;;2.10;1.80;;;11.10;99.90;;;;;;10329672;28;20207;-78
2023/11/09 20:06:59;;;;;;;1.80;1.70;;;11.10;99.90;;;;;;10321423;28;20216;-79
2023/11/09 20:12:03;;;;;;;1.70;1.60;;;11.00;99.90;;;;;;10317924;28;20199;-78
2023/11/09 20:17:08;;;;;;;2.10;2.00;;;11.00;99.90;;;;;;10327344;28;20243;-79
2023/11/09 20:22:12;;;;;;;1.70;1.60;;;10.90;99.90;;;;;;10332279;28;20230;-79
2023/11/09 20:27:14;;;;;;;1.90;1.80;;;10.90;99.90;;;;;;10325389;28;20249;-75
2023/11/09 20:32:17;;;;;;;2.20;2.10;;;10.90;99.90;;;;;;10329447;28;20206;-77
2023/11/09 20:37:21;;;;;;;2.20;2.10;;;11.00;99.90;;;;;;10337667;28;20230;-78
2023/11/09 20:42:25;;;;;;;1.60;1.50;;;11.00;99.90;;;;;;10332055;28;20203;-78
2023/11/09 20:47:27;;;;;;;1.73;1.63;;;11.00;99.90;;;;;;10327342;28;20233;-78
2023/11/09 20:52:32;;;;;;;2.00;1.90;;;10.90;99.90;;;;;;10328393;28;20703;-77
2023/11/09 20:57:34;;;;;;;1.70;1.60;;;10.90;99.90;;;;;;10326045;28;20229;-78
2023/11/09 21:02:37;;;;;;;1.50;1.40;;;11.00;99.90;;;;;;10314579;28;20263;-79
2023/11/09 21:07:41;;;;;;;1.60;1.53;;;11.00;99.80;;;;;;10319685;28;20220;-75
2023/11/09 21:12:45;;;;;;;1.90;1.80;;;11.00;99.90;;;;;;10323608;28;20266;-78
2023/11/09 21:17:47;;;;;;;1.90;1.80;;;10.90;99.90;;;;;;10309539;28;20316;-78
2023/11/09 21:22:51;;;;;;;1.80;1.70;;;11.00;99.90;;;;;;10298118;28;20265;-78
2023/11/09 21:27:53;;;;;;;1.80;1.70;;;10.90;99.90;;;;;;10309763;28;20218;-78
2023/11/09 21:32:56;;;;;;;2.17;2.07;;;10.90;99.90;;;;;;10320063;28;20208;-78
2023/11/09 21:38:02;;;;;;;1.80;1.70;;;10.90;99.90;;;;;;10322440;28;20717;-78
2023/11/09 21:43:04;;;;;;;2.10;1.90;;;10.90;99.90;;;;;;10325276;28;20211;-77
2023/11/09 21:48:07;;;;;;;3.53;1.77;;;10.90;99.90;;;;;;10324322;28;20207;-78
2023/11/09 21:53:12;;;;;;;1.67;1.60;;;10.90;99.90;;;;;;10336233;28;20571;-78
2023/11/09 21:58:17;;;;;;;1.97;1.87;;;10.90;99.90;;;;;;10324052;28;20231;-78
2023/11/09 22:03:21;;;;;;;1.77;1.67;;;10.90;99.90;;;;;;10316932;28;20231;-78
2023/11/09 22:08:28;;;;;;;1.30;1.30;;;10.90;99.90;;;;;;10298230;28;20219;-78
2023/11/09 22:13:30;;;;;;;4.13;2.00;;;10.90;99.90;;;;;;10318711;28;20203;-77
2023/11/09 22:18:33;;;;;;;2.07;1.93;;;10.90;99.90;;;;;;10284207;28;20231;-77
2023/11/09 22:23:38;;;;;;;1.70;1.60;;;10.90;99.90;;;;;;10317160;28;20206;-76
2023/11/09 22:28:40;;;;;;;2.07;1.97;;;11.00;99.90;;;;;;10335819;28;20215;-77
2023/11/09 22:33:42;;;;;;;2.07;1.97;;;11.00;99.90;;;;;;10331584;28;20194;-77
2023/11/09 22:38:46;;;;;;;1.60;1.60;;;11.00;99.90;;;;;;10337054;28;20230;-77
2023/11/09 22:43:49;;;;;;;2.43;2.30;;;11.00;99.90;;;;;;10334011;28;20664;-76
2023/11/09 22:48:51;;;;;;;1.97;1.80;;;11.00;99.90;;;;;;10345102;28;20318;-77
2023/11/09 22:53:55;;;;;;;1.83;1.73;;;11.00;99.90;;;;;;10339251;28;20207;-77
2023/11/09 22:58:58;;;;;;;2.00;1.90;;;11.10;99.90;;;;;;10339242;28;20578;-77
2023/11/09 23:04:00;;;;;;;2.43;2.27;;;11.10;99.90;;;;;;10339765;28;20202;-77
2023/11/09 23:09:04;;;;;;;2.53;2.30;;;11.00;99.90;;;;;;10339166;28;20689;-77
2023/11/09 23:14:07;;;;;;;2.00;1.90;;;10.90;99.90;;;;;;10329562;28;20203;-77
2023/11/09 23:19:11;;;;;;;2.73;2.63;;;10.80;99.90;;;;;;10338845;28;20277;-77
2023/11/09 23:24:15;;;;;;;2.50;2.40;;;10.70;99.90;;;;;;10312076;28;20311;-77
2023/11/09 23:29:17;;;;;;;2.50;2.40;;;10.60;99.90;;;;;;10330727;28;20243;-77
2023/11/09 23:34:19;;;;;;;2.40;2.30;;;10.60;99.90;;;;;;10328389;28;20207;-77
2023/11/09 23:39:24;;;;;;;2.53;2.43;;;10.50;99.90;;;;;;10329461;28;20223;-77
2023/11/09 23:44:26;;;;;;;2.77;2.67;;;10.50;99.90;;;;;;10330349;28;20623;-75
2023/11/09 23:49:29;;;;;;;2.80;2.70;;;10.50;99.90;;;;;;10330034;28;20218;-74
2023/11/09 23:54:34;;;;;;;3.83;3.27;;;10.50;99.90;;;;;;10329472;28;20199;-75
2023/11/09 23:59:37;;;;;;;2.90;2.80;;;10.60;99.90;;;;;;10329123;28;20475;-74
